Time;durP1;ratioP1;P1;durP2;ratioP2;P2;SDS_P1;SDS_P2;PMS_P1;PMS_P2;Temp;Humidity;BMP_temperature;BMP_pressure;BME280_temperature;BME280_humidity;BME280_pressure;Samples;Min_cycle;Max_cycle;Signal;HPM_P1;HPM_P2
2021/05/18 00:02:02;;;;;;;;;;;9.70;99.90;;;;;;10510453;28;20360;-71
2021/05/18 00:07:05;;;;;;;;;;;9.70;99.90;;;;;;10509524;28;20296;-71
2021/05/18 00:12:07;;;;;;;;;;;9.70;99.90;;;;;;10504426;28;20452;-71
2021/05/18 00:17:09;;;;;;;;;;;9.80;99.90;;;;;;10497046;28;19928;-71
2021/05/18 00:22:11;;;;;;;;;;;10.00;99.90;;;;;;10525620;28;20236;-71
2021/05/18 00:27:12;;;;;;;;;;;10.10;99.90;;;;;;10495762;28;19971;-71
2021/05/18 00:32:14;;;;;;;;;;;10.00;99.90;;;;;;10524401;28;19972;-71
2021/05/18 00:37:16;;;;;;;;;;;10.00;99.90;;;;;;10496507;28;19924;-71
2021/05/18 00:42:22;;;;;;;;;;;9.90;99.90;;;;;;10524950;28;19932;-71
2021/05/18 00:47:24;;;;;;;;;;;10.00;99.90;;;;;;10519477;28;19935;-71
2021/05/18 00:52:26;;;;;;;;;;;10.00;99.90;;;;;;10516248;28;20099;-71
2021/05/18 01:02:48;;;;;;;;;;;10.00;99.90;;;;;;10494010;28;20435;-71
2021/05/18 01:07:50;;;;;;;;;;;10.00;99.90;;;;;;10517106;28;20360;-70
2021/05/18 01:12:53;;;;;;;;;;;10.00;99.90;;;;;;10526365;28;19950;-71
2021/05/18 01:17:54;;;;;;;;;;;9.90;99.90;;;;;;10515478;28;20292;-70
2021/05/18 01:22:56;;;;;;;;;;;9.80;99.90;;;;;;10506115;28;20384;-71
2021/05/18 01:27:58;;;;;;;;;;;9.80;99.90;;;;;;10504895;28;20823;-70
2021/05/18 01:33:00;;;;;;;;;;;9.80;99.90;;;;;;10525954;28;19924;-70
2021/05/18 01:38:06;;;;;;;;;;;9.70;99.90;;;;;;10520823;28;19956;-70
2021/05/18 01:43:12;;;;;;;;;;;9.70;99.90;;;;;;10488933;28;20016;-71
2021/05/18 01:48:16;;;;;;;;;;;9.70;99.90;;;;;;10491591;28;19971;-70
2021/05/18 01:53:18;;;;;;;;;;;9.80;99.90;;;;;;10524024;28;19931;-70
2021/05/18 01:58:20;;;;;;;;;;;9.80;99.90;;;;;;10489855;28;19928;-70
2021/05/18 02:03:22;;;;;;;;;;;9.80;99.90;;;;;;10490658;28;20015;-71
2021/05/18 02:08:24;;;;;;;;;;;9.80;99.90;;;;;;10514564;28;20003;-71
2021/05/18 02:13:26;;;;;;;;;;;9.80;99.90;;;;;;10504397;28;20348;-71
2021/05/18 02:28:53;;;;;;;;;;;9.50;99.90;;;;;;10508174;28;20015;-70
2021/05/18 02:33:55;;;;;;;;;;;9.20;99.90;;;;;;10507142;28;19931;-70
2021/05/18 02:38:57;;;;;;;;;;;9.20;99.90;;;;;;10495474;28;19924;-71
2021/05/18 02:44:03;;;;;;;;;;;9.00;99.90;;;;;;10526799;28;20026;-70
2021/05/18 02:49:15;;;;;;;;;;;8.90;99.90;;;;;;10528562;28;20023;-70
2021/05/18 02:54:24;;;;;;;;;;;8.90;99.90;;;;;;10498617;28;20027;-70
2021/05/18 02:59:26;;;;;;;;;;;8.90;99.90;;;;;;10506883;28;20012;-70
2021/05/18 03:04:28;;;;;;;;;;;8.80;99.90;;;;;;10517063;28;19931;-70
2021/05/18 03:09:30;;;;;;;;;;;8.70;99.90;;;;;;10529937;28;20347;-70
2021/05/18 03:14:32;;;;;;;;;;;8.70;99.90;;;;;;10487154;28;20043;-70
2021/05/18 03:19:33;;;;;;;;;;;8.80;99.90;;;;;;10505823;28;19934;-70
2021/05/18 03:24:35;;;;;;;;;;;8.90;99.90;;;;;;10503296;28;20042;-70
2021/05/18 03:29:38;;;;;;;;;;;8.90;99.90;;;;;;10488612;28;19924;-70
2021/05/18 03:34:40;;;;;;;;;;;8.90;99.90;;;;;;10519384;28;20395;-71
2021/05/18 03:39:43;;;;;;;;;;;8.90;99.90;;;;;;10530855;28;20031;-71
2021/05/18 04:22:06;;;;;;;;;;;9.30;99.90;;;;;;10531179;28;19972;-71
2021/05/18 05:04:10;;;;;;;;;;;9.60;99.90;;;;;;10508218;28;20022;-71
2021/05/18 05:14:20;;;;;;;;;;;9.70;99.90;;;;;;10525922;28;20015;-71
2021/05/18 05:19:26;;;;;;;;;;;9.80;99.90;;;;;;10499384;28;19971;-71
2021/05/18 05:24:28;;;;;;;;;;;10.10;99.90;;;;;;10496636;28;20019;-71
2021/05/18 05:29:30;;;;;;;;;;;10.50;99.90;;;;;;10504221;28;19924;-71
2021/05/18 05:34:32;;;;;;;;;;;10.50;99.90;;;;;;10494161;28;19960;-71
2021/05/18 05:39:34;;;;;;;;;;;10.50;99.90;;;;;;10495893;28;20385;-71
2021/05/18 05:44:35;;;;;;;;;;;10.70;99.90;;;;;;10487502;28;20412;-71
2021/05/18 05:49:37;;;;;;;;;;;10.90;99.90;;;;;;10487973;28;20016;-71
2021/05/18 05:54:39;;;;;;;;;;;11.20;99.90;;;;;;10489867;28;20015;-71
2021/05/18 05:59:41;;;;;;;;;;;11.80;99.90;;;;;;10496288;28;20400;-71
2021/05/18 06:04:43;;;;;;;;;;;12.30;99.90;;;;;;10516129;28;20032;-71
2021/05/18 06:09:47;;;;;;;;;;;12.60;99.90;;;;;;10497560;28;20182;-71
2021/05/18 06:51:59;;;;;;;;;;;12.50;99.90;;;;;;10474451;28;19993;-71
2021/05/18 06:57:05;;;;;;;;;;;12.60;99.90;;;;;;10512104;28;20407;-71
2021/05/18 07:02:07;;;;;;;;;;;12.50;99.90;;;;;;10485563;28;19968;-71
2021/05/18 07:07:19;;;;;;;;;;;13.00;99.90;;;;;;10501366;28;20028;-72
2021/05/18 07:12:22;;;;;;;;;;;13.80;99.90;;;;;;10503256;28;19928;-71
2021/05/18 07:17:24;;;;;;;;;;;14.10;99.90;;;;;;10516308;28;19973;-71
2021/05/18 07:22:28;;;;;;;;;;;14.40;99.90;;;;;;10502678;28;19924;-71
2021/05/18 07:27:30;;;;;;;;;;;14.60;99.90;;;;;;10498655;28;19986;-72
2021/05/18 07:32:33;;;;;;;;;;;14.70;99.90;;;;;;10505903;28;20182;-71
2021/05/18 07:37:35;;;;;;;;;;;14.80;99.90;;;;;;10510950;28;19929;-71
2021/05/18 07:42:37;;;;;;;;;;;15.60;99.90;;;;;;10490248;28;19928;-71
2021/05/18 07:47:39;;;;;;;;;;;15.30;99.90;;;;;;10531859;28;19990;-71
2021/05/18 08:08:42;;;;;;;;;;;14.20;99.90;;;;;;10493528;28;19971;-71
2021/05/18 08:13:44;;;;;;;;;;;13.50;99.90;;;;;;10483057;28;19974;-72
2021/05/18 09:34:26;;;;;;;;;;;12.00;99.90;;;;;;10489150;28;19925;-65
2021/05/18 10:27:37;;;;;;;;;;;14.40;99.90;;;;;;10487604;28;20047;-65
2021/05/18 10:37:47;;;;;;;;;;;13.40;99.90;;;;;;10487408;28;19925;-65
2021/05/18 10:43:04;;;;;;;;;;;13.20;99.90;;;;;;10495332;28;19931;-65
2021/05/18 10:48:06;;;;;;;;;;;13.00;99.90;;;;;;10494743;28;19936;-65
2021/05/18 10:53:28;;;;;;;;;;;12.70;99.90;;;;;;10494060;28;20375;-65
2021/05/18 10:58:31;;;;;;;;;;;12.60;99.90;;;;;;10494909;28;19931;-65
2021/05/18 11:03:33;;;;;;;;;;;12.90;99.90;;;;;;10494255;28;19928;-65
2021/05/18 11:08:36;;;;;;;;;;;13.40;99.90;;;;;;10493984;28;20388;-65
2021/05/18 11:13:38;;;;;;;;;;;13.60;99.90;;;;;;10494901;28;19925;-65
2021/05/18 11:18:40;;;;;;;;;;;13.50;99.90;;;;;;10493792;28;19925;-65
2021/05/18 11:23:42;;;;;;;;;;;13.70;99.90;;;;;;10494049;28;19935;-65
2021/05/18 11:28:44;;;;;;;;;;;14.30;99.90;;;;;;10493860;28;19967;-65
2021/05/18 11:33:50;;;;;;;;;;;14.50;99.90;;;;;;10493411;28;19960;-65
2021/05/18 11:38:52;;;;;;;;;;;14.90;99.90;;;;;;10493095;28;20007;-65
2021/05/18 11:43:55;;;;;;;;;;;15.00;99.90;;;;;;10492050;28;19924;-66
2021/05/18 11:49:11;;;;;;;;;;;15.60;99.90;;;;;;10492618;28;20020;-65
2021/05/18 11:54:14;;;;;;;;;;;16.80;99.90;;;;;;10492634;28;19947;-66
2021/05/18 11:59:17;;;;;;;;;;;17.70;96.50;;;;;;10492214;28;20296;-66
2021/05/18 12:04:23;;;;;;;;;;;18.20;91.20;;;;;;10492235;28;19925;-66
2021/05/18 12:09:26;;;;;;;;;;;17.90;88.40;;;;;;10492390;28;19924;-65
2021/05/18 12:14:28;;;;;;;;;;;16.20;89.60;;;;;;10491504;28;20002;-65
2021/05/18 12:19:30;;;;;;;;;;;14.50;99.90;;;;;;10492413;28;20281;-65
2021/05/18 12:24:38;;;;;;;;;;;13.50;99.90;;;;;;10491970;28;20067;-65
2021/05/18 12:29:43;;;;;;;;;;;13.00;99.90;;;;;;10489494;28;20565;-65
2021/05/18 12:34:46;;;;;;;;;;;12.90;99.90;;;;;;10491480;28;19925;-65
2021/05/18 12:39:48;;;;;;;;;;;12.60;99.90;;;;;;10491187;28;19974;-65
2021/05/18 12:44:50;;;;;;;;;;;12.40;99.90;;;;;;10489738;28;20335;-65
2021/05/18 12:49:52;;;;;;;;;;;12.30;99.90;;;;;;10491127;28;20036;-65
2021/05/18 12:54:55;;;;;;;;;;;12.00;99.90;;;;;;10490472;28;19928;-65
2021/05/18 13:00:00;;;;;;;;;;;11.60;99.90;;;;;;10489549;28;19929;-64
2021/05/18 13:05:34;;;;;;;;;;;11.40;99.90;;;;;;10489603;28;20034;-65
2021/05/18 13:10:51;;;;;;;;;;;11.30;99.90;;;;;;10455262;28;19925;-65
2021/05/18 13:16:12;;;;;;;;;;;11.20;99.90;;;;;;10489123;28;20424;-64
2021/05/18 13:21:25;;;;;;;;;;;11.10;99.90;;;;;;10489565;28;20015;-64
2021/05/18 13:26:28;;;;;;;;;;;11.10;99.90;;;;;;10488394;28;20463;-65
2021/05/18 13:31:31;;;;;;;;;;;11.30;99.90;;;;;;10488285;28;19935;-65
2021/05/18 13:36:34;;;;;;;;;;;11.50;99.90;;;;;;10487702;28;19939;-65
2021/05/18 13:41:36;;;;;;;;;;;11.70;99.90;;;;;;10485536;28;20351;-65
2021/05/18 13:46:38;;;;;;;;;;;11.80;99.90;;;;;;10487336;28;20007;-65
2021/05/18 13:51:45;;;;;;;;;;;12.00;99.90;;;;;;10485813;28;19924;-65
2021/05/18 13:57:04;;;;;;;;;;;12.40;99.90;;;;;;10486257;28;19943;-65
2021/05/18 14:02:06;;;;;;;;;;;13.30;99.90;;;;;;10487984;28;19924;-65
2021/05/18 14:07:43;;;;;;;;;;;13.90;99.90;;;;;;10487894;28;20449;-65
2021/05/18 14:12:31;;;;;;;;;;;14.30;99.90;;;;;;10486739;28;19968;-65
2021/05/18 14:17:33;;;;;;;;;;;14.70;99.90;;;;;;10487438;28;20403;-65
2021/05/18 14:22:35;;;;;;;;;;;14.70;99.90;;;;;;10487359;28;20015;-65
2021/05/18 14:27:38;;;;;;;;;;;14.00;99.90;;;;;;10486607;28;20473;-65
2021/05/18 14:32:43;;;;;;;;;;;13.50;99.90;;;;;;10487613;28;19928;-65
2021/05/18 14:37:54;;;;;;;;;;;13.00;99.90;;;;;;10499372;28;20007;-65
2021/05/18 14:43:01;;;;;;;;;;;13.10;99.90;;;;;;10484196;28;19985;-65
2021/05/18 14:58:26;;;;;;;;;;;13.50;99.90;;;;;;10485270;28;19964;-65
2021/05/18 15:03:31;;;;;;;;;;;13.50;99.90;;;;;;10485538;28;19931;-65
2021/05/18 15:08:32;;;;;;;;;;;13.60;99.90;;;;;;10485350;28;19929;-65
2021/05/18 15:13:37;;;;;;;;;;;13.40;99.90;;;;;;10485650;28;20018;-65
2021/05/18 15:18:39;;;;;;;;;;;13.20;99.90;;;;;;10484233;28;20388;-65
2021/05/18 15:23:41;;;;;;;;;;;13.10;99.90;;;;;;10485045;28;19935;-65
2021/05/18 15:28:43;;;;;;;;;;;13.00;99.90;;;;;;10492753;28;19978;-65
2021/05/18 15:33:46;;;;;;;;;;;12.80;99.90;;;;;;10492330;28;19928;-65
2021/05/18 15:38:48;;;;;;;;;;;13.00;99.90;;;;;;10492630;28;19929;-65
2021/05/18 15:43:49;;;;;;;;;;;13.20;99.90;;;;;;10505493;28;19928;-65
2021/05/18 15:48:51;;;;;;;;;;;13.30;99.90;;;;;;10497362;28;19931;-65
2021/05/18 15:53:53;;;;;;;;;;;13.30;99.90;;;;;;10490813;28;19967;-65
2021/05/18 15:58:55;;;;;;;;;;;13.90;99.90;;;;;;10491565;28;19970;-65
2021/05/18 16:03:57;;;;;;;;;;;14.40;99.90;;;;;;10491356;28;19925;-65
2021/05/18 16:09:00;;;;;;;;;;;14.80;99.90;;;;;;10491637;28;19934;-66
2021/05/18 16:14:02;;;;;;;;;;;14.80;99.90;;;;;;10491089;28;19959;-65
2021/05/18 16:19:05;;;;;;;;;;;14.10;99.90;;;;;;10489513;28;19929;-65
2021/05/18 16:24:07;;;;;;;;;;;13.50;99.90;;;;;;10490233;28;19932;-65
2021/05/18 16:29:09;;;;;;;;;;;13.00;99.90;;;;;;10490710;28;19925;-65
2021/05/18 16:34:11;;;;;;;;;;;12.70;99.90;;;;;;10490097;28;20404;-65
2021/05/18 16:39:14;;;;;;;;;;;12.40;99.90;;;;;;10489358;28;20396;-65
2021/05/18 16:44:16;;;;;;;;;;;12.20;99.90;;;;;;10487933;28;19932;-65
2021/05/18 16:49:18;;;;;;;;;;;11.90;99.90;;;;;;10487987;28;20580;-65
2021/05/18 16:54:20;;;;;;;;;;;11.40;99.90;;;;;;10489379;28;19924;-65
2021/05/18 16:59:22;;;;;;;;;;;10.80;99.90;;;;;;10488927;28;19925;-65
2021/05/18 17:04:24;;;;;;;;;;;10.60;99.90;;;;;;10488432;28;19932;-65
2021/05/18 17:09:27;;;;;;;;;;;10.50;99.90;;;;;;10487160;28;19928;-65
2021/05/18 17:14:29;;;;;;;;;;;10.60;99.90;;;;;;10488687;28;19963;-65
2021/05/18 17:19:31;;;;;;;;;;;10.80;99.90;;;;;;10487606;28;19928;-65
2021/05/18 17:24:34;;;;;;;;;;;10.90;99.90;;;;;;10487119;28;20015;-65
2021/05/18 17:29:36;;;;;;;;;;;11.00;99.90;;;;;;10487835;28;19931;-65
2021/05/18 17:34:39;;;;;;;;;;;10.90;99.90;;;;;;10488030;28;19924;-65
2021/05/18 17:39:41;;;;;;;;;;;10.90;99.90;;;;;;10486859;28;20304;-65
2021/05/18 17:44:43;;;;;;;;;;;10.80;99.90;;;;;;10486954;28;19924;-65
2021/05/18 17:49:46;;;;;;;;;;;10.60;99.90;;;;;;10486025;28;19931;-65
2021/05/18 17:54:48;;;;;;;;;;;10.50;99.90;;;;;;10486840;28;19998;-65
2021/05/18 17:59:50;;;;;;;;;;;10.50;99.90;;;;;;10485176;28;20003;-65
2021/05/18 18:04:52;;;;;;;;;;;10.30;99.90;;;;;;10486315;28;20443;-64
2021/05/18 18:10:01;;;;;;;;;;;10.10;99.90;;;;;;10485849;28;19925;-65
2021/05/18 18:15:03;;;;;;;;;;;10.20;99.90;;;;;;10486291;28;19952;-65
2021/05/18 18:20:06;;;;;;;;;;;10.30;99.90;;;;;;10485464;28;19925;-65
2021/05/18 18:25:09;;;;;;;;;;;10.20;99.90;;;;;;10486174;28;19943;-65
2021/05/18 18:30:12;;;;;;;;;;;10.10;99.90;;;;;;10486417;28;20466;-65
2021/05/18 18:35:14;;;;;;;;;;;10.20;99.90;;;;;;10485277;28;20014;-65
2021/05/18 18:40:16;;;;;;;;;;;10.20;99.90;;;;;;10485970;28;19924;-65
2021/05/18 18:45:19;;;;;;;;;;;9.90;99.90;;;;;;10485488;28;19929;-65
2021/05/18 18:50:27;;;;;;;;;;;10.10;99.90;;;;;;10485409;28;20281;-65
2021/05/18 18:55:30;;;;;;;;;;;10.10;99.90;;;;;;10485744;28;19925;-65
2021/05/18 19:00:33;;;;;;;;;;;10.10;99.90;;;;;;10489697;28;19932;-65
2021/05/18 19:15:54;;;;;;;;;;;9.90;99.90;;;;;;10492431;28;20202;-65
2021/05/18 19:20:56;;;;;;;;;;;9.80;99.90;;;;;;10492067;28;19928;-65
2021/05/18 19:25:59;;;;;;;;;;;9.70;99.90;;;;;;10491213;28;19924;-65
2021/05/18 19:31:06;;;;;;;;;;;9.60;99.90;;;;;;10492748;28;19928;-65
2021/05/18 19:52:04;;;;;;;;;;;9.10;99.90;;;;;;10491680;28;19973;-72
2021/05/18 20:23:47;;;;;;;;;;;8.40;99.90;;;;;;10489955;28;19932;-73
2021/05/18 20:28:51;;;;;;;;;;;8.40;99.90;;;;;;10489894;28;19951;-73
2021/05/18 20:44:13;;;;;;;;;;;8.30;99.90;;;;;;10489136;28;19931;-72
2021/05/18 20:49:17;;;;;;;;;;;8.40;99.90;;;;;;10489210;28;19947;-71
2021/05/18 20:54:20;;;;;;;;;;;8.30;99.90;;;;;;10489208;28;19936;-73
2021/05/18 20:59:22;;;;;;;;;;;8.30;99.90;;;;;;10490515;28;19955;-73
2021/05/18 21:04:24;;;;;;;;;;;8.30;99.90;;;;;;10504943;28;20676;-72
2021/05/18 21:19:54;;;;;;;;;;;8.20;99.90;;;;;;10446303;28;20241;-71
2021/05/18 21:25:08;;;;;;;;;;;8.10;99.90;;;;;;10489630;28;20331;-71
2021/05/18 21:30:10;;;;;;;;;;;8.00;99.90;;;;;;10490275;28;19974;-72
2021/05/18 21:35:12;;;;;;;;;;;8.00;99.90;;;;;;10492789;28;19971;-72
2021/05/18 21:40:18;;;;;;;;;;;8.00;99.90;;;;;;10483079;28;20023;-71
2021/05/18 21:45:20;;;;;;;;;;;8.00;99.90;;;;;;10502729;28;20355;-71
2021/05/18 21:50:22;;;;;;;;;;;8.10;99.90;;;;;;10525967;28;19967;-71
2021/05/18 21:55:24;;;;;;;;;;;8.10;99.90;;;;;;10508432;28;19925;-72
2021/05/18 22:00:26;;;;;;;;;;;8.10;99.90;;;;;;10496008;28;19931;-71
2021/05/18 22:05:33;;;;;;;;;;;8.10;99.90;;;;;;10510476;28;20406;-71
2021/05/18 22:10:39;;;;;;;;;;;8.20;99.90;;;;;;10496033;28;19976;-71
2021/05/18 22:26:10;;;;;;;;;;;8.20;99.90;;;;;;10502915;28;20383;-71
2021/05/18 22:31:15;;;;;;;;;;;8.10;99.90;;;;;;10487090;28;19963;-71
2021/05/18 22:36:17;;;;;;;;;;;8.00;99.90;;;;;;10485443;28;19928;-71
2021/05/18 22:41:19;;;;;;;;;;;8.00;99.90;;;;;;10511196;28;20328;-72
2021/05/18 22:46:20;;;;;;;;;;;8.00;99.90;;;;;;10527354;28;19935;-72
2021/05/18 22:51:27;;;;;;;;;;;8.20;99.90;;;;;;10535110;28;20019;-71
2021/05/18 22:56:28;;;;;;;;;;;8.20;99.90;;;;;;10507614;28;20750;-71
2021/05/18 23:01:30;;;;;;;;;;;8.00;99.90;;;;;;10502085;28;19931;-72
2021/05/18 23:06:32;;;;;;;;;;;7.90;99.90;;;;;;10512369;28;20015;-72
2021/05/18 23:11:34;;;;;;;;;;;7.90;99.90;;;;;;10509854;28;20050;-72
2021/05/18 23:16:37;;;;;;;;;;;7.90;99.90;;;;;;10494825;28;19964;-71
2021/05/18 23:21:39;;;;;;;;;;;7.90;99.90;;;;;;10500542;28;20292;-72
2021/05/18 23:26:41;;;;;;;;;;;7.80;99.90;;;;;;10512654;28;19928;-72
2021/05/18 23:31:43;;;;;;;;;;;8.00;99.90;;;;;;10533734;28;19935;-71
2021/05/18 23:36:45;;;;;;;;;;;8.00;99.90;;;;;;10517436;28;19932;-71
2021/05/18 23:41:47;;;;;;;;;;;8.00;99.90;;;;;;10510550;28;19986;-72
2021/05/18 23:46:49;;;;;;;;;;;7.80;99.90;;;;;;10506670;28;19971;-72
2021/05/18 23:51:51;;;;;;;;;;;7.60;99.90;;;;;;10524382;28;19931;-71
2021/05/18 23:56:52;;;;;;;;;;;7.50;99.90;;;;;;10504108;28;20014;-72
